createdAt,value
2023-04-12T00:00:55.639Z,7.20
2023-04-12T00:03:23.504Z,5.80
2023-04-12T00:05:54.657Z,6.93
2023-04-12T00:08:32.955Z,7.00
2023-04-12T00:11:00.907Z,9.10
2023-04-12T00:13:29.199Z,4.60
2023-04-12T00:15:57.068Z,7.40
2023-04-12T00:18:25.259Z,7.17
2023-04-12T00:20:53.469Z,4.72
2023-04-12T00:23:21.357Z,9.33
2023-04-12T00:25:50.622Z,7.68
2023-04-12T00:28:18.405Z,5.80
2023-04-12T00:30:46.581Z,4.78
2023-04-12T00:33:14.342Z,7.43
2023-04-12T00:35:42.168Z,7.33
2023-04-12T00:38:11.117Z,7.30
2023-04-12T00:40:42.495Z,7.15
2023-04-12T00:43:15.562Z,6.85
2023-04-12T00:45:44.436Z,6.10
2023-04-12T00:48:12.664Z,7.67
2023-04-12T00:50:44.879Z,4.33
2023-04-12T00:53:14.392Z,8.77
2023-04-12T00:55:44.950Z,6.87
2023-04-12T00:58:15.958Z,7.60
2023-04-12T01:00:52.992Z,8.50
2023-04-12T01:03:23.490Z,6.40
2023-04-12T01:06:01.198Z,4.50
2023-04-12T01:08:40.468Z,4.20
2023-04-12T01:11:17.686Z,3.53
2023-04-12T01:13:54.235Z,4.20
2023-04-12T01:16:29.745Z,3.00
2023-04-12T01:19:03.738Z,4.40
2023-04-12T01:21:43.428Z,4.83
2023-04-12T01:24:24.796Z,7.27
2023-04-12T01:26:53.120Z,5.30
2023-04-12T01:29:23.415Z,8.63
2023-04-12T01:31:55.377Z,9.00
2023-04-12T01:34:26.034Z,4.23
2023-04-12T01:36:55.485Z,5.63
2023-04-12T01:39:23.420Z,7.23
2023-04-12T01:41:51.595Z,5.40
2023-04-12T01:44:19.957Z,5.37
2023-04-12T01:46:49.965Z,7.47
2023-04-12T01:49:20.052Z,7.87
2023-04-12T01:51:53.594Z,6.43
2023-04-12T01:54:24.214Z,6.10
2023-04-12T01:56:58.883Z,6.13
2023-04-12T01:59:31.561Z,6.37
2023-04-12T02:02:00.731Z,6.13
2023-04-12T02:04:29.805Z,8.40
2023-04-12T02:06:58.051Z,4.70
2023-04-12T02:09:25.965Z,7.23
2023-04-12T02:11:54.044Z,8.57
2023-04-12T02:14:21.908Z,6.50
2023-04-12T02:16:50.572Z,5.67
2023-04-12T02:19:20.236Z,5.10
2023-04-12T02:21:48.060Z,7.13
2023-04-12T02:24:16.547Z,5.13
2023-04-12T02:26:45.928Z,7.10
2023-04-12T02:29:14.557Z,7.93
2023-04-12T02:31:42.621Z,8.07
2023-04-12T02:34:13.308Z,6.23
2023-04-12T02:36:49.278Z,10.03
2023-04-12T02:39:19.454Z,7.90
2023-04-12T02:41:49.788Z,7.13
2023-04-12T02:44:17.969Z,8.90
2023-04-12T02:46:56.197Z,9.80
2023-04-12T02:49:24.417Z,9.60
2023-04-12T02:51:54.712Z,9.47
2023-04-12T02:54:27.695Z,8.77
2023-04-12T02:56:57.440Z,9.87
2023-04-12T02:59:44.429Z,7.63
2023-04-12T03:02:25.048Z,10.27
2023-04-12T03:04:58.589Z,7.10
2023-04-12T03:07:37.301Z,6.70
2023-04-12T03:10:07.649Z,5.30
2023-04-12T03:12:40.051Z,9.63
2023-04-12T03:15:19.218Z,8.13
2023-04-12T03:17:51.809Z,7.57
2023-04-12T03:20:24.563Z,7.70
2023-04-12T03:23:04.048Z,7.20
2023-04-12T03:25:33.934Z,8.60
2023-04-12T03:28:19.236Z,8.20
2023-04-12T03:30:50.104Z,6.73
2023-04-12T03:33:20.976Z,6.67
2023-04-12T03:35:49.876Z,9.20
2023-04-12T03:38:19.428Z,11.17
2023-04-12T03:40:48.112Z,8.30
2023-04-12T03:43:17.598Z,8.47
2023-04-12T03:45:45.328Z,7.43
2023-04-12T03:48:13.320Z,4.23
2023-04-12T03:50:45.138Z,5.17
2023-04-12T03:53:22.213Z,9.27
2023-04-12T03:55:51.058Z,7.90
2023-04-12T03:58:18.887Z,6.10
2023-04-12T04:00:49.852Z,7.93
2023-04-12T04:03:18.216Z,5.53
2023-04-12T04:05:53.618Z,8.07
2023-04-12T04:08:23.435Z,7.90
2023-04-12T04:10:52.713Z,10.07
2023-04-12T04:13:23.915Z,9.20
2023-04-12T04:16:03.505Z,7.30
2023-04-12T04:18:31.558Z,5.80
2023-04-12T04:21:00.069Z,7.57
2023-04-12T04:23:38.393Z,7.07
2023-04-12T04:26:10.430Z,7.43
2023-04-12T04:28:44.998Z,9.70
2023-04-12T04:31:17.544Z,8.77
2023-04-12T04:33:49.426Z,8.47
2023-04-12T04:36:18.180Z,7.63
2023-04-12T04:38:52.713Z,8.70
2023-04-12T04:41:39.446Z,8.37
2023-04-12T04:44:10.506Z,7.50
2023-04-12T04:46:44.017Z,12.57
2023-04-12T04:49:11.995Z,9.37
2023-04-12T04:51:39.663Z,9.33
2023-04-12T04:54:09.934Z,9.60
2023-04-12T04:56:41.383Z,8.37
2023-04-12T04:59:10.372Z,7.00
2023-04-12T05:01:38.335Z,11.20
2023-04-12T05:04:06.756Z,6.77
2023-04-12T05:06:34.617Z,5.80
2023-04-12T05:09:05.308Z,9.63
2023-04-12T05:11:39.228Z,8.30
2023-04-12T05:14:12.630Z,8.90
2023-04-12T05:16:41.254Z,10.93
2023-04-12T05:19:09.048Z,6.27
2023-04-12T05:21:36.776Z,12.70
2023-04-12T05:24:04.997Z,10.50
2023-04-12T05:26:36.287Z,10.17
2023-04-12T05:29:10.682Z,6.28
2023-04-12T05:31:38.574Z,5.40
2023-04-12T05:34:10.308Z,8.87
2023-04-12T05:36:44.628Z,8.33
2023-04-12T05:39:12.458Z,8.37
2023-04-12T05:41:40.681Z,6.03
2023-04-12T05:44:09.917Z,8.83
2023-04-12T05:46:38.642Z,7.80
2023-04-12T05:49:06.999Z,7.37
2023-04-12T05:51:43.589Z,8.93
2023-04-12T05:54:21.813Z,10.10
2023-04-12T05:56:52.881Z,10.83
2023-04-12T05:59:22.390Z,9.97
2023-04-12T06:01:50.916Z,9.60
2023-04-12T06:04:20.963Z,8.70
2023-04-12T06:06:49.690Z,8.40
2023-04-12T06:09:17.868Z,7.87
2023-04-12T06:11:45.937Z,8.47
2023-04-12T06:14:13.743Z,7.20
2023-04-12T06:16:43.171Z,7.03
2023-04-12T06:19:11.338Z,4.90
2023-04-12T06:21:39.112Z,5.70
2023-04-12T06:24:08.484Z,6.70
2023-04-12T06:26:39.648Z,5.97
2023-04-12T06:29:11.213Z,8.10
2023-04-12T06:31:39.264Z,6.33
2023-04-12T06:34:09.156Z,7.07
2023-04-12T06:36:41.457Z,7.50
2023-04-12T06:39:09.588Z,9.67
2023-04-12T06:41:37.301Z,8.87
2023-04-12T06:44:05.091Z,5.10
2023-04-12T06:46:32.988Z,5.27
2023-04-12T06:49:01.229Z,10.30
2023-04-12T06:51:30.932Z,4.17
2023-04-12T06:53:58.698Z,4.87
2023-04-12T06:56:26.691Z,6.47
2023-04-12T06:58:55.191Z,4.83
2023-04-12T07:01:23.444Z,6.13
2023-04-12T07:03:51.801Z,4.80
2023-04-12T07:06:25.941Z,4.53
2023-04-12T07:08:58.003Z,4.80
2023-04-12T07:11:27.560Z,4.73
2023-04-12T07:13:59.729Z,5.97
2023-04-12T07:16:28.044Z,5.27
2023-04-12T07:19:03.760Z,5.60
2023-04-12T07:21:31.735Z,3.80
2023-04-12T07:24:01.664Z,3.93
2023-04-12T07:26:30.136Z,7.60
2023-04-12T07:28:58.453Z,3.93
2023-04-12T07:31:26.495Z,5.03
2023-04-12T07:33:54.244Z,5.53
2023-04-12T07:36:22.210Z,6.53
2023-04-12T07:38:58.246Z,4.10
2023-04-12T07:41:28.467Z,5.73
2023-04-12T07:43:58.041Z,5.87
2023-04-12T07:46:31.503Z,4.83
2023-04-12T07:48:59.493Z,4.30
2023-04-12T07:51:27.778Z,4.57
2023-04-12T07:53:56.914Z,7.87
2023-04-12T07:56:24.961Z,6.87
2023-04-12T07:58:54.074Z,5.47
2023-04-12T08:01:21.901Z,4.03
2023-04-12T08:03:49.774Z,2.83
2023-04-12T08:06:18.240Z,2.70
2023-04-12T08:08:46.062Z,2.80
2023-04-12T08:11:13.957Z,2.20
2023-04-12T08:13:41.698Z,1.63
2023-04-12T08:16:12.966Z,2.23
2023-04-12T08:18:40.873Z,2.70
2023-04-12T08:21:08.920Z,2.70
2023-04-12T08:23:36.728Z,5.67
2023-04-12T08:26:04.673Z,3.33
2023-04-12T08:28:33.506Z,2.93
2023-04-12T08:31:01.348Z,2.63
2023-04-12T08:33:30.451Z,3.43
2023-04-12T08:35:58.944Z,3.27
2023-04-12T08:38:41.537Z,2.50
2023-04-12T08:41:12.623Z,3.93
2023-04-12T08:43:45.327Z,3.33
2023-04-12T08:46:15.580Z,1.87
2023-04-12T08:48:46.451Z,2.27
2023-04-12T08:51:15.658Z,2.50
2023-04-12T08:53:43.447Z,2.53
2023-04-12T08:56:12.673Z,2.00
2023-04-12T08:58:41.656Z,2.73
2023-04-12T09:01:14.182Z,3.93
2023-04-12T09:03:43.295Z,2.10
2023-04-12T09:06:13.341Z,2.90
2023-04-12T09:08:55.116Z,4.33
2023-04-12T09:11:24.635Z,2.93
2023-04-12T09:13:52.912Z,1.80
2023-04-12T09:16:36.149Z,2.37
2023-04-12T09:19:04.049Z,4.17
2023-04-12T09:21:35.129Z,3.63
2023-04-12T09:24:05.889Z,2.83
2023-04-12T09:26:33.679Z,2.80
2023-04-12T09:29:01.465Z,2.97
2023-04-12T09:31:29.230Z,2.10
2023-04-12T09:34:07.825Z,2.43
2023-04-12T09:36:40.590Z,2.77
2023-04-12T09:39:08.855Z,2.73
2023-04-12T09:41:36.665Z,1.77
2023-04-12T09:44:04.662Z,2.17
2023-04-12T09:46:32.488Z,3.43
2023-04-12T09:49:00.609Z,3.77
2023-04-12T09:51:31.140Z,3.10
2023-04-12T09:54:02.330Z,2.17
2023-04-12T09:56:32.184Z,2.53
2023-04-12T09:59:03.931Z,2.30
2023-04-12T10:01:35.612Z,3.10
2023-04-12T10:04:04.646Z,4.57
2023-04-12T10:06:34.095Z,3.57
2023-04-12T10:09:04.962Z,2.67
2023-04-12T10:11:33.833Z,4.27
2023-04-12T10:14:03.650Z,3.33
2023-04-12T10:16:31.858Z,3.63
2023-04-12T10:19:03.840Z,3.73
2023-04-12T10:21:31.882Z,5.37
2023-04-12T10:24:00.290Z,2.90
2023-04-12T10:26:29.496Z,5.10
2023-04-12T10:29:26.378Z,2.83
2023-04-12T10:32:19.449Z,3.40
2023-04-12T10:34:52.701Z,3.10
2023-04-12T10:37:21.241Z,3.37
2023-04-12T10:39:54.235Z,5.00
2023-04-12T10:42:28.021Z,3.97
2023-04-12T10:45:18.250Z,3.13
2023-04-12T10:48:03.744Z,5.37
2023-04-12T10:50:32.781Z,2.80
2023-04-12T10:53:26.947Z,3.03
2023-04-12T10:55:55.151Z,2.77
2023-04-12T10:59:00.151Z,1.77
2023-04-12T11:01:32.131Z,2.03
2023-04-12T11:04:18.494Z,14.57
2023-04-12T11:07:11.213Z,1.53
2023-04-12T11:10:02.458Z,1.63
2023-04-12T11:12:35.474Z,1.87
2023-04-12T11:15:06.293Z,1.87
2023-04-12T11:17:55.671Z,1.77
2023-04-12T11:20:23.794Z,1.70
2023-04-12T11:22:52.424Z,3.77
2023-04-12T11:25:20.677Z,2.53
2023-04-12T11:27:52.345Z,2.93
2023-04-12T11:30:23.516Z,4.50
2023-04-12T11:32:51.570Z,3.67
2023-04-12T11:35:24.248Z,3.77
2023-04-12T11:37:52.112Z,4.60
2023-04-12T11:40:22.545Z,5.53
2023-04-12T11:42:50.607Z,3.37
2023-04-12T11:45:21.771Z,3.57
2023-04-12T11:47:49.712Z,4.13
2023-04-12T11:50:29.777Z,5.57
2023-04-12T11:53:10.816Z,4.23
2023-04-12T11:55:38.632Z,6.30
2023-04-12T11:58:06.412Z,5.33
2023-04-12T12:00:36.013Z,6.20
2023-04-12T12:03:07.582Z,4.70
2023-04-12T12:05:38.482Z,4.80
2023-04-12T12:08:07.783Z,7.70
2023-04-12T12:10:46.959Z,3.63
2023-04-12T12:13:25.381Z,3.13
2023-04-12T12:15:54.755Z,3.17
2023-04-12T12:18:28.811Z,3.80
2023-04-12T12:20:56.696Z,3.90
2023-04-12T12:23:31.468Z,3.47
2023-04-12T12:26:10.426Z,4.50
2023-04-12T12:28:50.935Z,4.27
2023-04-12T12:31:22.533Z,3.10
2023-04-12T12:33:52.508Z,2.20
2023-04-12T12:36:20.800Z,3.57
2023-04-12T12:38:51.178Z,5.30
2023-04-12T12:41:21.070Z,5.87
2023-04-12T12:43:49.932Z,2.53
2023-04-12T12:46:18.963Z,4.50
2023-04-12T12:48:49.281Z,4.37
2023-04-12T12:51:19.508Z,7.27
2023-04-12T12:53:48.077Z,3.53
2023-04-12T12:56:16.992Z,7.50
2023-04-12T12:58:45.292Z,5.00
2023-04-12T13:01:13.006Z,8.37
2023-04-12T13:03:40.942Z,6.67
2023-04-12T13:06:10.606Z,4.87
2023-04-12T13:08:38.382Z,6.03
2023-04-12T13:11:06.760Z,6.43
2023-04-12T13:13:34.501Z,5.53
2023-04-12T13:16:02.332Z,6.47
2023-04-12T13:18:30.186Z,8.33
2023-04-12T13:20:57.985Z,9.00
2023-04-12T13:23:27.074Z,8.23
2023-04-12T13:25:54.872Z,5.70
2023-04-12T13:28:22.593Z,6.90
2023-04-12T13:30:50.520Z,7.50
2023-04-12T13:33:21.678Z,6.00
2023-04-12T13:35:49.774Z,7.10
2023-04-12T13:38:17.600Z,5.10
2023-04-12T13:40:46.691Z,7.00
2023-04-12T13:43:14.545Z,5.13
2023-04-12T13:45:42.343Z,8.17
2023-04-12T13:48:10.211Z,10.10
2023-04-12T13:50:37.979Z,5.60
2023-04-12T13:53:05.728Z,6.10
2023-04-12T13:55:33.570Z,8.50
2023-04-12T13:58:02.676Z,7.87
2023-04-12T14:00:30.507Z,12.00
2023-04-12T14:02:58.372Z,8.13
2023-04-12T14:05:26.369Z,10.33
2023-04-12T14:07:55.605Z,9.70
2023-04-12T14:10:23.338Z,8.43
2023-04-12T14:12:51.245Z,7.17
2023-04-12T14:15:20.369Z,5.97
2023-04-12T14:17:48.283Z,6.17
2023-04-12T14:20:18.782Z,3.97
2023-04-12T14:22:47.344Z,13.20
2023-04-12T14:25:15.095Z,7.23
2023-04-12T14:27:42.969Z,7.47
2023-04-12T14:30:10.990Z,4.87
2023-04-12T14:32:41.224Z,6.07
2023-04-12T14:35:09.914Z,5.83
2023-04-12T14:37:37.937Z,6.20
2023-04-12T14:40:08.650Z,3.63
2023-04-12T14:42:37.580Z,5.30
2023-04-12T14:45:08.111Z,5.90
2023-04-12T14:47:36.042Z,4.43
2023-04-12T14:50:05.569Z,3.17
2023-04-12T14:52:33.345Z,4.45
2023-04-12T14:55:01.790Z,4.75
2023-04-12T14:57:29.508Z,4.17
2023-04-12T14:59:57.289Z,5.40
2023-04-12T15:02:26.103Z,3.45
2023-04-12T15:04:54.567Z,2.97
2023-04-12T15:07:23.724Z,5.38
2023-04-12T15:09:51.433Z,5.90
2023-04-12T15:12:19.231Z,5.18
2023-04-12T15:14:47.259Z,4.33
2023-04-12T15:17:15.079Z,4.47
2023-04-12T15:19:42.874Z,4.22
2023-04-12T15:22:10.609Z,6.15
2023-04-12T15:24:39.657Z,5.05
2023-04-12T15:27:07.670Z,4.38
2023-04-12T15:29:35.961Z,5.38
2023-04-12T15:32:03.757Z,5.80
2023-04-12T15:34:33.996Z,5.27
2023-04-12T15:37:02.439Z,3.27
2023-04-12T15:39:30.439Z,7.73
2023-04-12T15:42:00.313Z,5.37
2023-04-12T15:44:31.701Z,5.77
2023-04-12T15:47:10.258Z,5.40
2023-04-12T15:49:39.305Z,6.27
2023-04-12T15:52:06.973Z,4.30
2023-04-12T15:54:35.120Z,5.93
2023-04-12T15:57:09.608Z,2.10
2023-04-12T15:59:38.025Z,4.40
2023-04-12T16:02:09.779Z,2.83
2023-04-12T16:04:38.088Z,2.97
2023-04-12T16:07:05.926Z,5.53
2023-04-12T16:09:34.876Z,2.37
2023-04-12T16:12:04.081Z,2.83
2023-04-12T16:14:32.276Z,2.10
2023-04-12T16:17:00.232Z,1.93
2023-04-12T16:19:28.213Z,2.00
2023-04-12T16:21:56.015Z,1.40
2023-04-12T16:24:23.770Z,1.60
2023-04-12T16:26:52.153Z,1.80
2023-04-12T16:29:21.224Z,1.73
2023-04-12T16:31:48.972Z,2.67
2023-04-12T16:34:17.530Z,2.40
2023-04-12T16:36:45.283Z,1.83
2023-04-12T16:39:13.252Z,2.53
2023-04-12T16:41:41.427Z,3.90
2023-04-12T16:44:09.241Z,1.40
2023-04-12T16:46:38.761Z,1.47
2023-04-12T16:49:06.482Z,2.23
2023-04-12T16:51:36.676Z,1.53
2023-04-12T16:54:05.363Z,2.23
2023-04-12T16:56:33.240Z,1.83
2023-04-12T16:59:01.149Z,1.63
2023-04-12T17:01:28.965Z,1.17
2023-04-12T17:04:00.026Z,2.27
2023-04-12T17:06:30.295Z,1.70
2023-04-12T17:09:00.817Z,1.33
2023-04-12T17:11:29.565Z,0.80
2023-04-12T17:13:57.923Z,2.57
2023-04-12T17:16:25.865Z,1.47
2023-04-12T17:18:53.555Z,0.93
2023-04-12T17:21:22.619Z,1.27
2023-04-12T17:23:50.395Z,1.80
2023-04-12T17:26:19.029Z,1.43
2023-04-12T17:28:46.792Z,1.37
2023-04-12T17:31:14.642Z,1.07
2023-04-12T17:33:42.945Z,2.43
2023-04-12T17:36:12.085Z,1.47
2023-04-12T17:38:41.704Z,1.40
2023-04-12T17:41:10.240Z,2.77
2023-04-12T17:43:37.979Z,2.37
2023-04-12T17:46:07.295Z,3.17
2023-04-12T17:48:36.006Z,1.33
2023-04-12T17:51:04.159Z,1.90
2023-04-12T17:53:32.059Z,2.67
2023-04-12T17:56:01.399Z,1.43
2023-04-12T17:58:29.935Z,2.97
2023-04-12T18:00:57.933Z,2.47
2023-04-12T18:03:26.819Z,1.40
2023-04-12T18:05:55.682Z,1.90
2023-04-12T18:08:23.936Z,1.83
2023-04-12T18:10:52.633Z,3.87
2023-04-12T18:13:21.905Z,2.40
2023-04-12T18:15:49.876Z,2.83
2023-04-12T18:18:17.697Z,1.77
2023-04-12T18:20:45.721Z,2.33
2023-04-12T18:23:13.595Z,1.23
2023-04-12T18:25:41.552Z,1.17
2023-04-12T18:28:09.886Z,1.63
2023-04-12T18:30:39.190Z,1.73
2023-04-12T18:33:08.157Z,1.33
2023-04-12T18:35:36.310Z,1.53
2023-04-12T18:38:04.445Z,1.30
2023-04-12T18:40:32.232Z,2.53
2023-04-12T18:43:02.774Z,1.83
2023-04-12T18:45:30.992Z,3.33
2023-04-12T18:48:00.583Z,1.93
2023-04-12T18:50:28.742Z,1.87
2023-04-12T18:52:58.425Z,4.30
2023-04-12T18:55:26.339Z,4.17
2023-04-12T18:57:54.101Z,2.60
2023-04-12T19:00:22.426Z,3.17
2023-04-12T19:02:50.217Z,3.37
2023-04-12T19:05:21.602Z,4.20
2023-04-12T19:07:49.401Z,3.27
2023-04-12T19:10:17.546Z,3.77
2023-04-12T19:12:45.456Z,1.77
2023-04-12T19:15:13.416Z,2.57
2023-04-12T19:17:41.343Z,2.63
2023-04-12T19:20:10.862Z,3.40
2023-04-12T19:22:39.928Z,2.90
2023-04-12T19:25:09.462Z,2.30
2023-04-12T19:27:37.836Z,2.73
2023-04-12T19:30:07.192Z,1.70
2023-04-12T19:32:34.891Z,2.80
2023-04-12T19:35:02.774Z,5.37
2023-04-12T19:37:33.851Z,3.23
2023-04-12T19:40:03.435Z,1.87
2023-04-12T19:42:31.452Z,2.07
2023-04-12T19:45:00.561Z,3.23
2023-04-12T19:47:29.043Z,3.77
2023-04-12T19:49:58.197Z,3.80
2023-04-12T19:52:28.136Z,2.53
2023-04-12T19:54:57.076Z,2.73
2023-04-12T19:57:27.533Z,1.73
2023-04-12T19:59:58.205Z,1.40
2023-04-12T20:02:25.913Z,2.90
2023-04-12T20:04:57.659Z,1.60
2023-04-12T20:07:25.483Z,2.47
2023-04-12T20:09:53.640Z,2.67
2023-04-12T20:12:21.597Z,2.47
2023-04-12T20:14:50.734Z,2.50
2023-04-12T20:17:18.581Z,3.77
2023-04-12T20:19:46.792Z,3.93
2023-04-12T20:22:14.546Z,3.83
2023-04-12T20:24:42.487Z,4.63
2023-04-12T20:27:11.332Z,3.67
2023-04-12T20:29:39.657Z,4.40
2023-04-12T20:32:09.705Z,2.93
2023-04-12T20:34:37.436Z,3.53
2023-04-12T20:37:05.710Z,2.77
2023-04-12T20:39:33.454Z,4.07
2023-04-12T20:42:01.799Z,3.80
2023-04-12T20:44:29.556Z,2.77
2023-04-12T20:46:58.617Z,2.13
2023-04-12T20:49:28.128Z,3.27
2023-04-12T20:51:56.769Z,4.70
2023-04-12T20:54:25.263Z,3.07
2023-04-12T20:56:53.346Z,3.33
2023-04-12T20:59:22.934Z,4.33
2023-04-12T21:04:39.123Z,4.27
2023-04-12T21:07:06.897Z,3.83
2023-04-12T21:09:35.280Z,4.03
2023-04-12T21:12:04.950Z,4.70
2023-04-12T21:14:34.804Z,2.63
2023-04-12T21:17:04.872Z,2.27
2023-04-12T21:19:32.641Z,2.67
2023-04-12T21:22:01.913Z,3.47
2023-04-12T21:24:30.992Z,2.37
2023-04-12T21:26:58.786Z,0.87
2023-04-12T21:29:26.536Z,3.57
2023-04-12T21:31:54.290Z,1.60
2023-04-12T21:34:22.330Z,2.33
2023-04-12T21:36:50.074Z,2.13
2023-04-12T21:39:19.333Z,2.33
2023-04-12T21:41:46.990Z,1.00
2023-04-12T21:44:14.708Z,2.80
2023-04-12T21:46:42.387Z,1.13
2023-04-12T21:49:10.235Z,1.13
2023-04-12T21:51:38.009Z,0.90
2023-04-12T21:54:06.036Z,1.97
2023-04-12T21:56:35.101Z,1.63
2023-04-12T21:59:04.238Z,1.07
2023-04-12T22:01:33.565Z,0.77
2023-04-12T22:04:01.554Z,0.90
2023-04-12T22:06:29.384Z,1.30
2023-04-12T22:09:01.617Z,0.80
2023-04-12T22:11:29.837Z,1.30
2023-04-12T22:13:59.221Z,3.33
2023-04-12T22:16:27.742Z,2.10
2023-04-12T22:18:55.762Z,3.37
2023-04-12T22:21:23.735Z,2.07
2023-04-12T22:23:51.437Z,1.90
2023-04-12T22:26:19.150Z,1.80
2023-04-12T22:28:48.381Z,3.37
2023-04-12T22:31:21.815Z,2.57
2023-04-12T22:33:49.534Z,1.40
2023-04-12T22:36:17.567Z,1.80
2023-04-12T22:38:47.514Z,1.53
2023-04-12T22:41:16.684Z,3.50
2023-04-12T22:43:47.537Z,2.73
2023-04-12T22:46:18.462Z,1.67
2023-04-12T22:48:47.660Z,1.70
2023-04-12T22:51:15.870Z,0.90
2023-04-12T22:53:43.980Z,1.23
2023-04-12T22:56:11.885Z,1.17
2023-04-12T22:58:40.630Z,3.47
2023-04-12T23:01:10.965Z,1.70
2023-04-12T23:03:41.554Z,1.50
2023-04-12T23:06:09.727Z,3.10
2023-04-12T23:08:38.599Z,2.43
2023-04-12T23:11:07.257Z,2.63
2023-04-12T23:13:36.134Z,4.40
2023-04-12T23:16:05.027Z,2.47
2023-04-12T23:18:32.854Z,1.73
2023-04-12T23:21:02.690Z,1.37
2023-04-12T23:23:30.492Z,1.70
2023-04-12T23:25:58.212Z,1.67
2023-04-12T23:28:26.628Z,1.20
2023-04-12T23:30:54.442Z,2.47
2023-04-12T23:33:22.635Z,1.03
2023-04-12T23:35:52.439Z,3.07
2023-04-12T23:38:31.681Z,2.33
2023-04-12T23:41:00.402Z,2.23
2023-04-12T23:43:28.226Z,3.87
2023-04-12T23:45:56.974Z,2.70
2023-04-12T23:48:25.527Z,1.77
2023-04-12T23:50:53.528Z,2.00
2023-04-12T23:53:22.884Z,1.67
2023-04-12T23:55:52.039Z,2.17
2023-04-12T23:58:19.945Z,2.40
